Time;durP1;ratioP1;P1;durP2;ratioP2;P2;SDS_P1;SDS_P2;PMS_P1;PMS_P2;Temp;Humidity;BMP_temperature;BMP_pressure;BME280_temperature;BME280_humidity;BME280_pressure;Samples;Min_cycle;Max_cycle;Signal;HPM_P1;HPM_P2
2022/07/10 00:00:11;;;;;;;8.35;1.40;;;15.30;99.90;;;;;;5043449;28;20203;-72
2022/07/10 00:02:38;;;;;;;6.40;1.42;;;15.30;99.90;;;;;;5043267;28;20274;-73
2022/07/10 00:05:09;;;;;;;20.65;3.42;;;15.30;99.90;;;;;;5043584;28;20295;-75
2022/07/10 00:07:36;;;;;;;3.65;1.15;;;15.20;99.90;;;;;;5052513;28;20287;-73
2022/07/10 00:10:04;;;;;;;7.18;1.80;;;15.20;99.90;;;;;;5052016;28;20206;-72
2022/07/10 00:12:31;;;;;;;9.88;1.80;;;15.20;99.90;;;;;;5046689;28;20316;-73
2022/07/10 00:14:58;;;;;;;5.60;2.17;;;15.20;99.90;;;;;;5041744;28;20215;-72
2022/07/10 00:17:25;;;;;;;6.53;2.53;;;15.30;99.90;;;;;;5050995;28;20261;-73
2022/07/10 00:19:52;;;;;;;7.10;2.20;;;15.30;99.90;;;;;;5052349;28;20287;-72
2022/07/10 00:22:20;;;;;;;13.45;1.70;;;15.20;99.90;;;;;;5045817;28;20204;-74
2022/07/10 00:24:47;;;;;;;5.53;1.85;;;15.20;99.90;;;;;;5041776;28;20292;-73
2022/07/10 00:27:14;;;;;;;4.93;1.50;;;15.20;99.90;;;;;;5044520;28;20206;-72
2022/07/10 00:29:41;;;;;;;3.97;1.63;;;15.30;99.90;;;;;;5051273;28;20294;-74
2022/07/10 00:32:08;;;;;;;5.85;1.67;;;15.30;99.90;;;;;;5044255;28;20196;-72
2022/07/10 00:34:36;;;;;;;2.97;1.15;;;15.30;99.90;;;;;;5053544;28;20282;-73
2022/07/10 00:37:03;;;;;;;6.63;1.80;;;15.20;99.90;;;;;;5045213;28;20234;-74
2022/07/10 00:39:31;;;;;;;4.20;1.65;;;15.20;99.90;;;;;;5049637;28;20208;-75
2022/07/10 00:42:07;;;;;;;2.20;1.20;;;15.20;99.90;;;;;;5053289;28;20283;-73
2022/07/10 00:44:35;;;;;;;5.97;1.70;;;15.10;99.90;;;;;;5047606;28;20211;-74
2022/07/10 00:47:02;;;;;;;6.57;1.40;;;15.10;99.90;;;;;;5053763;28;20200;-73
2022/07/10 00:49:29;;;;;;;2.88;2.05;;;15.10;99.90;;;;;;5052993;28;20562;-73
2022/07/10 00:51:56;;;;;;;2.80;2.08;;;15.10;99.90;;;;;;5046579;28;20206;-73
2022/07/10 00:54:23;;;;;;;6.30;1.85;;;15.20;99.90;;;;;;5043334;28;20220;-72
2022/07/10 00:56:52;;;;;;;2.50;1.20;;;15.30;99.90;;;;;;5048227;28;20216;-73
2022/07/10 00:59:19;;;;;;;4.82;1.90;;;15.40;99.90;;;;;;5054392;28;20238;-73
2022/07/10 01:01:46;;;;;;;7.18;1.65;;;15.30;99.90;;;;;;5045865;28;20221;-74
2022/07/10 01:04:13;;;;;;;5.75;1.95;;;15.30;99.90;;;;;;5057326;28;20302;-72
2022/07/10 01:06:40;;;;;;;3.15;1.38;;;15.30;99.90;;;;;;5063224;28;20221;-72
2022/07/10 01:09:07;;;;;;;6.45;1.20;;;15.30;99.90;;;;;;5047190;28;20207;-73
2022/07/10 01:11:36;;;;;;;6.22;1.10;;;15.30;99.90;;;;;;5044139;28;20208;-73
2022/07/10 01:14:05;;;;;;;5.60;1.73;;;15.20;99.90;;;;;;5038798;28;20282;-74
2022/07/10 01:16:33;;;;;;;6.10;1.52;;;15.20;99.90;;;;;;5051502;28;20289;-72
2022/07/10 01:19:00;;;;;;;2.40;1.25;;;15.20;99.90;;;;;;5043276;28;20295;-74
2022/07/10 01:21:31;;;;;;;4.63;1.45;;;15.20;99.90;;;;;;5047713;28;20617;-73
2022/07/10 01:23:58;;;;;;;3.88;2.05;;;15.20;99.90;;;;;;5052189;28;20233;-73
2022/07/10 01:26:25;;;;;;;7.22;1.85;;;15.20;99.90;;;;;;5050488;28;20307;-74
2022/07/10 01:28:53;;;;;;;9.63;1.70;;;15.20;99.90;;;;;;5044672;28;20632;-74
2022/07/10 01:31:21;;;;;;;6.03;1.42;;;15.20;99.90;;;;;;5051403;28;20242;-72
2022/07/10 01:33:49;;;;;;;7.70;1.92;;;15.20;99.90;;;;;;5035013;28;20302;-73
2022/07/10 01:36:17;;;;;;;5.90;1.20;;;15.20;99.90;;;;;;5050663;28;20234;-74
2022/07/10 01:38:45;;;;;;;4.35;1.10;;;15.10;99.90;;;;;;5053395;28;20286;-74
2022/07/10 01:41:12;;;;;;;10.60;1.48;;;15.20;99.90;;;;;;5051422;28;20201;-73
2022/07/10 01:43:42;;;;;;;2.85;1.00;;;15.00;99.90;;;;;;5040047;28;20294;-72
2022/07/10 01:46:10;;;;;;;9.93;3.35;;;15.10;99.90;;;;;;5048982;28;20243;-73
2022/07/10 01:48:38;;;;;;;7.60;2.42;;;15.10;99.90;;;;;;5051112;28;20195;-73
2022/07/10 01:51:05;;;;;;;4.38;1.00;;;15.10;99.90;;;;;;5047409;28;20317;-73
2022/07/10 01:53:32;;;;;;;11.30;2.22;;;15.00;99.90;;;;;;5044176;28;20315;-73
2022/07/10 01:56:02;;;;;;;5.85;1.83;;;15.00;99.90;;;;;;5048502;28;20632;-73
2022/07/10 01:58:29;;;;;;;6.63;1.35;;;15.00;99.90;;;;;;5051746;28;20314;-73
2022/07/10 02:00:57;;;;;;;5.90;3.25;;;15.00;99.90;;;;;;5046252;28;20204;-74
2022/07/10 02:06:09;;;;;;;6.60;1.73;;;15.00;99.90;;;;;;5052047;28;20249;-73
2022/07/10 02:08:35;;;;;;;2.80;1.00;;;15.00;99.90;;;;;;5045000;28;20210;-73
2022/07/10 02:11:04;;;;;;;8.02;1.50;;;15.00;99.90;;;;;;5048088;28;20199;-73
2022/07/10 02:13:31;;;;;;;4.15;1.67;;;14.90;99.90;;;;;;5052334;28;20310;-74
2022/07/10 02:15:58;;;;;;;6.78;1.75;;;14.90;99.90;;;;;;5052604;28;20300;-73
2022/07/10 02:18:26;;;;;;;4.10;1.02;;;15.10;99.90;;;;;;5052312;28;20199;-73
2022/07/10 02:20:53;;;;;;;5.15;1.02;;;15.00;99.90;;;;;;5052345;28;20207;-73
2022/07/10 02:23:20;;;;;;;4.00;1.25;;;15.00;99.90;;;;;;5052483;28;20229;-73
2022/07/10 02:25:47;;;;;;;9.85;2.10;;;15.00;99.90;;;;;;5052815;28;20206;-73
2022/07/10 02:28:15;;;;;;;5.50;1.25;;;15.00;99.90;;;;;;5049174;28;20213;-72
2022/07/10 02:30:43;;;;;;;7.25;2.15;;;14.90;99.90;;;;;;5048538;28;20706;-73
2022/07/10 02:33:10;;;;;;;6.72;2.38;;;15.00;99.90;;;;;;5043455;28;20231;-73
2022/07/10 02:35:37;;;;;;;6.70;1.58;;;14.90;99.90;;;;;;5052546;28;20239;-73
2022/07/10 02:38:04;;;;;;;5.50;1.83;;;14.80;99.90;;;;;;5050521;28;20630;-74
2022/07/10 02:40:31;;;;;;;5.40;1.30;;;14.70;99.90;;;;;;5050512;28;20563;-73
2022/07/10 02:42:58;;;;;;;6.05;1.92;;;14.70;99.90;;;;;;5049928;28;20223;-74
2022/07/10 02:45:26;;;;;;;4.03;1.77;;;14.70;99.90;;;;;;5053163;28;20227;-74
2022/07/10 02:47:53;;;;;;;6.53;1.50;;;14.60;99.90;;;;;;5055039;28;20259;-73
2022/07/10 02:50:20;;;;;;;7.93;1.67;;;14.60;99.90;;;;;;5044743;28;20231;-74
2022/07/10 02:52:47;;;;;;;9.02;2.08;;;14.60;99.90;;;;;;5052868;28;20310;-73
2022/07/10 02:55:16;;;;;;;5.63;1.65;;;14.60;99.90;;;;;;5052849;28;20210;-72
2022/07/10 02:57:42;;;;;;;3.15;1.70;;;14.70;99.90;;;;;;5045570;28;20326;-71
2022/07/10 03:00:11;;;;;;;3.53;1.30;;;14.70;99.90;;;;;;5054104;28;20286;-73
2022/07/10 03:02:39;;;;;;;7.30;1.83;;;14.70;99.90;;;;;;5048418;28;20414;-72
2022/07/10 03:05:07;;;;;;;5.78;1.30;;;14.60;99.90;;;;;;5047813;28;20265;-71
2022/07/10 03:07:34;;;;;;;4.95;1.85;;;14.60;99.90;;;;;;5045206;28;20211;-73
2022/07/10 03:10:01;;;;;;;5.60;1.50;;;14.50;99.90;;;;;;5046929;28;20617;-73
2022/07/10 03:12:28;;;;;;;5.10;1.42;;;14.50;99.90;;;;;;5046426;28;20223;-73
2022/07/10 03:14:55;;;;;;;7.63;2.03;;;14.50;99.90;;;;;;5037291;28;20231;-72
2022/07/10 03:17:22;;;;;;;5.18;3.65;;;14.40;99.90;;;;;;5037044;28;20262;-73
2022/07/10 03:19:50;;;;;;;5.25;1.50;;;14.40;99.90;;;;;;5036925;28;20204;-73
2022/07/10 03:22:17;;;;;;;4.85;1.70;;;14.40;99.90;;;;;;5042525;28;20196;-73
2022/07/10 03:24:46;;;;;;;4.55;1.70;;;14.40;99.90;;;;;;5048236;28;20210;-72
2022/07/10 03:27:13;;;;;;;2.78;1.35;;;14.50;99.90;;;;;;5054195;28;20196;-73
2022/07/10 03:29:40;;;;;;;5.47;1.55;;;14.50;99.90;;;;;;5052752;28;20204;-73
2022/07/10 03:32:08;;;;;;;6.28;1.63;;;14.50;99.90;;;;;;5052968;28;20203;-73
2022/07/10 03:34:34;;;;;;;5.38;1.67;;;14.50;99.90;;;;;;5053434;28;20283;-75
2022/07/10 03:37:03;;;;;;;4.32;1.42;;;14.40;99.90;;;;;;5048537;28;20702;-73
2022/07/10 03:39:31;;;;;;;6.65;2.10;;;14.40;99.90;;;;;;5046986;28;20200;-72
2022/07/10 03:41:58;;;;;;;9.18;2.15;;;14.40;99.90;;;;;;5040106;28;20212;-72
2022/07/10 03:44:25;;;;;;;4.20;2.13;;;14.40;99.90;;;;;;5048001;28;20274;-72
2022/07/10 03:46:53;;;;;;;4.45;1.58;;;14.40;99.90;;;;;;5044336;28;20215;-74
2022/07/10 03:49:20;;;;;;;4.20;1.52;;;14.40;99.90;;;;;;5042642;28;20291;-73
2022/07/10 03:51:46;;;;;;;9.20;2.25;;;14.40;99.90;;;;;;5042759;28;20287;-72
2022/07/10 03:54:15;;;;;;;6.97;1.85;;;14.30;99.90;;;;;;5051709;28;20302;-74
2022/07/10 03:59:26;;;;;;;3.33;1.70;;;14.30;99.90;;;;;;5042669;28;20218;-74
2022/07/10 04:01:53;;;;;;;5.85;2.38;;;14.30;99.90;;;;;;5046806;28;20262;-73
2022/07/10 04:04:20;;;;;;;7.63;1.98;;;14.40;99.90;;;;;;5049642;28;20219;-72
2022/07/10 04:06:47;;;;;;;8.38;1.48;;;14.50;99.90;;;;;;5040949;28;20204;-73
2022/07/10 04:09:15;;;;;;;4.50;1.75;;;14.70;99.90;;;;;;5045935;28;20283;-72
2022/07/10 04:11:42;;;;;;;8.80;2.05;;;14.80;99.90;;;;;;5039008;28;20204;-72
2022/07/10 04:14:09;;;;;;;6.40;1.58;;;15.00;99.90;;;;;;5060916;28;20330;-73
2022/07/10 04:16:36;;;;;;;5.50;1.67;;;15.20;99.90;;;;;;5048827;28;20270;-75
2022/07/10 04:19:03;;;;;;;7.50;2.25;;;15.20;99.90;;;;;;5045424;28;20973;-72
2022/07/10 04:21:30;;;;;;;6.63;2.03;;;15.20;99.90;;;;;;5050585;28;20232;-73
2022/07/10 04:23:56;;;;;;;7.65;1.65;;;15.20;99.90;;;;;;5042693;28;20268;-73
2022/07/10 04:26:25;;;;;;;8.05;2.45;;;15.20;99.90;;;;;;5039569;28;20205;-73
2022/07/10 04:28:52;;;;;;;3.90;1.60;;;15.20;99.90;;;;;;5050901;28;20659;-72
2022/07/10 04:31:19;;;;;;;14.05;1.83;;;15.20;99.90;;;;;;5037036;28;20224;-73
2022/07/10 04:33:46;;;;;;;13.70;2.10;;;15.20;99.90;;;;;;5049844;28;20255;-73
2022/07/10 04:36:13;;;;;;;9.60;2.28;;;15.20;99.90;;;;;;5050953;28;20662;-74
2022/07/10 04:38:40;;;;;;;5.25;2.50;;;15.20;99.90;;;;;;5051745;28;20227;-73
2022/07/10 04:41:08;;;;;;;6.93;2.08;;;15.20;99.90;;;;;;5042143;28;20238;-72
2022/07/10 04:43:36;;;;;;;7.25;2.30;;;15.20;99.90;;;;;;5036821;28;20586;-73
2022/07/10 04:46:03;;;;;;;6.30;1.88;;;15.30;99.90;;;;;;5043991;28;20206;-72
2022/07/10 04:48:30;;;;;;;4.68;1.40;;;15.30;99.90;;;;;;5039885;28;20242;-73
2022/07/10 04:50:57;;;;;;;5.97;2.10;;;15.40;99.90;;;;;;5043077;28;20200;-73
2022/07/10 04:53:24;;;;;;;6.25;2.22;;;15.50;99.90;;;;;;5047281;28;20351;-72
2022/07/10 04:55:51;;;;;;;9.38;2.90;;;15.60;99.90;;;;;;5057770;28;20200;-73
2022/07/10 04:58:18;;;;;;;2.72;2.13;;;15.80;99.90;;;;;;5052056;28;20312;-74
2022/07/10 05:00:46;;;;;;;9.23;2.45;;;16.20;99.90;;;;;;5042653;28;20658;-75
2022/07/10 05:03:15;;;;;;;5.10;1.70;;;16.30;99.90;;;;;;5049176;28;20308;-74
2022/07/10 05:05:43;;;;;;;7.53;1.77;;;17.30;99.90;;;;;;5046279;28;20478;-73
2022/07/10 05:08:10;;;;;;;5.33;1.60;;;18.60;99.90;;;;;;5036891;28;20513;-72
2022/07/10 05:10:37;;;;;;;8.53;1.60;;;19.70;99.90;;;;;;5035137;28;20514;-72
2022/07/10 05:13:03;;;;;;;4.57;1.73;;;20.10;99.90;;;;;;5036151;28;20546;-72
2022/07/10 05:15:30;;;;;;;4.60;2.60;;;19.70;99.90;;;;;;5047480;28;20461;-72
2022/07/10 05:18:00;;;;;;;6.83;1.90;;;19.10;99.90;;;;;;5048598;28;20478;-72
2022/07/10 05:20:27;;;;;;;6.73;3.07;;;18.60;99.90;;;;;;5045341;28;20529;-73
2022/07/10 05:22:54;;;;;;;3.17;1.80;;;18.10;99.90;;;;;;5039937;28;20467;-74
2022/07/10 05:25:21;;;;;;;7.80;2.10;;;17.80;99.90;;;;;;5045385;28;20448;-73
2022/07/10 05:27:48;;;;;;;6.40;2.30;;;17.70;99.90;;;;;;5041354;28;20445;-73
2022/07/10 05:30:15;;;;;;;5.83;1.80;;;17.50;99.90;;;;;;5050344;28;20452;-73
2022/07/10 05:32:45;;;;;;;5.77;2.30;;;18.00;99.90;;;;;;5044360;28;20460;-73
2022/07/10 05:35:14;;;;;;;6.97;1.77;;;18.60;99.90;;;;;;5049993;28;20533;-73
2022/07/10 05:37:41;;;;;;;8.30;2.23;;;18.60;99.90;;;;;;5047630;28;20470;-72
2022/07/10 05:40:10;;;;;;;8.90;2.27;;;18.20;99.90;;;;;;5042739;28;20937;-73
2022/07/10 05:42:36;;;;;;;4.70;2.20;;;18.00;99.90;;;;;;5045188;28;20487;-72
2022/07/10 05:45:05;;;;;;;3.73;1.83;;;17.70;99.90;;;;;;5049759;28;20840;-74
2022/07/10 05:47:32;;;;;;;15.07;3.17;;;17.50;99.90;;;;;;5043910;28;20446;-74
2022/07/10 05:49:59;;;;;;;8.33;2.93;;;17.30;99.90;;;;;;5037240;28;20493;-76
2022/07/10 05:52:28;;;;;;;9.53;2.70;;;17.00;99.90;;;;;;5043247;28;20551;-73
2022/07/10 05:54:56;;;;;;;10.13;3.70;;;16.80;99.90;;;;;;5051261;28;20459;-75
2022/07/10 05:57:23;;;;;;;8.75;3.05;;;16.70;99.90;;;;;;5037329;28;20484;-72
2022/07/10 05:59:50;;;;;;;11.52;3.47;;;16.60;99.90;;;;;;5048894;28;20296;-74
2022/07/10 06:02:17;;;;;;;5.77;2.40;;;16.70;99.90;;;;;;5050922;28;20300;-72
2022/07/10 06:04:44;;;;;;;10.82;2.78;;;16.70;99.90;;;;;;5048983;28;20485;-72
2022/07/10 06:07:11;;;;;;;5.23;2.33;;;16.90;99.90;;;;;;5051184;28;20237;-72
2022/07/10 06:09:39;;;;;;;6.77;2.37;;;17.00;99.90;;;;;;5051481;28;20458;-72
2022/07/10 06:12:09;;;;;;;5.40;2.73;;;17.20;99.90;;;;;;5050748;28;20536;-72
2022/07/10 06:14:36;;;;;;;5.17;2.17;;;17.80;99.90;;;;;;5041357;28;20864;-72
2022/07/10 06:17:04;;;;;;;6.20;1.90;;;18.60;99.90;;;;;;5049841;28;20453;-74
2022/07/10 06:19:31;;;;;;;3.47;1.93;;;19.50;99.90;;;;;;5044653;28;20569;-73
2022/07/10 06:24:44;;;;;;;4.57;1.80;;;20.50;99.90;;;;;;5048681;28;20772;-75
2022/07/10 06:27:11;;;;;;;5.93;2.10;;;21.80;97.70;;;;;;5045277;28;20449;-78
2022/07/10 06:29:38;;;;;;;6.27;2.17;;;23.10;94.70;;;;;;5049543;28;20445;-78
2022/07/10 06:32:06;;;;;;;4.73;2.30;;;24.10;91.90;;;;;;5051292;28;20444;-79
2022/07/10 06:34:37;;;;;;;5.80;1.60;;;25.00;90.70;;;;;;5052350;28;20474;-76
2022/07/10 06:37:09;;;;;;;5.73;2.00;;;25.80;89.00;;;;;;5054684;28;20948;-77
2022/07/10 06:39:36;;;;;;;5.03;1.80;;;25.90;85.60;;;;;;5044319;28;20804;-76
2022/07/10 06:42:06;;;;;;;11.23;2.53;;;25.20;86.50;;;;;;5053075;28;20438;-77
2022/07/10 06:44:33;;;;;;;3.40;1.60;;;25.10;87.50;;;;;;5047130;28;20482;-76
2022/07/10 06:49:48;;;;;;;7.80;3.17;;;23.80;90.00;;;;;;5064924;28;20437;-77
2022/07/10 06:52:15;;;;;;;6.90;3.70;;;22.60;91.20;;;;;;5053334;28;20491;-77
2022/07/10 06:54:43;;;;;;;11.27;3.60;;;21.80;92.40;;;;;;5041512;28;20532;-78
2022/07/10 06:57:12;;;;;;;9.50;2.93;;;21.20;94.20;;;;;;5049284;28;20513;-78
2022/07/10 06:59:39;;;;;;;7.43;2.60;;;20.80;95.80;;;;;;5060472;28;20546;-77
2022/07/10 07:02:07;;;;;;;4.47;2.27;;;21.00;96.00;;;;;;5066683;28;20445;-77
2022/07/10 07:04:34;;;;;;;10.60;2.90;;;22.30;94.70;;;;;;5068972;28;20534;-77
2022/07/10 07:07:08;;;;;;;5.73;1.97;;;23.20;92.10;;;;;;5073746;28;20426;-76
2022/07/10 07:09:35;;;;;;;5.93;1.93;;;23.20;90.40;;;;;;5063895;28;20441;-77
2022/07/10 07:12:04;;;;;;;7.83;2.57;;;22.90;91.20;;;;;;5070016;28;20433;-77
2022/07/10 07:14:32;;;;;;;8.17;2.40;;;22.70;91.30;;;;;;5056475;28;20997;-78
2022/07/10 07:17:02;;;;;;;10.77;3.13;;;22.60;91.40;;;;;;5063145;28;20551;-78
2022/07/10 07:19:32;;;;;;;8.47;2.17;;;22.50;92.30;;;;;;5046169;28;20474;-77
2022/07/10 07:24:44;;;;;;;7.23;2.70;;;22.90;92.40;;;;;;5052912;28;20421;-77
2022/07/10 07:27:11;;;;;;;4.90;1.73;;;22.30;92.80;;;;;;5049586;28;20461;-77
2022/07/10 07:29:40;;;;;;;6.47;2.93;;;21.50;94.40;;;;;;5042414;28;20531;-76
2022/07/10 07:32:07;;;;;;;7.93;3.30;;;20.60;97.40;;;;;;5055344;28;20450;-76
2022/07/10 07:34:34;;;;;;;9.07;2.73;;;20.10;99.90;;;;;;5056067;28;20501;-74
2022/07/10 07:37:01;;;;;;;6.23;2.70;;;19.90;99.90;;;;;;5047768;28;20443;-74
2022/07/10 07:39:29;;;;;;;12.50;4.87;;;20.00;99.90;;;;;;5052799;28;20569;-74
2022/07/10 07:41:56;;;;;;;6.27;2.30;;;20.60;99.90;;;;;;5053799;28;20532;-75
2022/07/10 07:44:23;;;;;;;8.17;2.40;;;22.20;97.90;;;;;;5056003;28;20458;-75
2022/07/10 07:46:51;;;;;;;6.13;2.70;;;23.80;95.00;;;;;;5045400;28;20530;-76
2022/07/10 07:49:18;;;;;;;7.23;2.17;;;24.40;92.30;;;;;;5051315;28;20519;-75
2022/07/10 07:51:47;;;;;;;7.50;2.17;;;24.40;89.10;;;;;;5050938;28;20482;-79
2022/07/10 07:54:16;;;;;;;8.13;2.27;;;24.00;86.20;;;;;;5055279;28;20854;-79
2022/07/10 07:56:43;;;;;;;5.20;1.80;;;23.60;86.30;;;;;;5042417;28;20447;-76
2022/07/10 07:59:10;;;;;;;5.43;1.60;;;23.00;85.90;;;;;;5039981;28;20588;-73
2022/07/10 08:01:41;;;;;;;8.83;2.37;;;22.60;86.80;;;;;;5054695;28;20537;-73
2022/07/10 08:04:09;;;;;;;8.50;2.23;;;22.60;87.30;;;;;;5041384;28;21011;-73
2022/07/10 08:06:36;;;;;;;6.53;2.20;;;22.40;87.40;;;;;;5047059;28;20855;-75
2022/07/10 08:09:03;;;;;;;7.87;2.60;;;21.90;87.40;;;;;;5050265;28;20448;-70
2022/07/10 08:11:31;;;;;;;6.43;1.87;;;21.60;89.20;;;;;;5052969;28;20468;-73
2022/07/10 08:13:58;;;;;;;12.80;2.70;;;21.30;90.30;;;;;;5043063;28;21833;-72
2022/07/10 08:16:25;;;;;;;11.43;3.67;;;21.00;90.90;;;;;;5046472;28;20565;-73
2022/07/10 08:18:52;;;;;;;6.43;2.17;;;20.60;91.20;;;;;;5050734;28;20556;-69
2022/07/10 08:21:20;;;;;;;10.57;3.00;;;20.50;91.80;;;;;;5047270;28;20452;-69
2022/07/10 08:23:47;;;;;;;6.67;2.40;;;20.60;91.90;;;;;;5052242;28;20552;-72
2022/07/10 08:26:14;;;;;;;9.83;2.73;;;21.00;92.20;;;;;;5054817;28;20456;-72
2022/07/10 08:28:41;;;;;;;10.50;2.70;;;21.20;91.60;;;;;;5052997;28;20549;-75
2022/07/10 08:31:10;;;;;;;7.37;2.37;;;21.60;91.50;;;;;;5053954;28;20509;-73
2022/07/10 08:33:36;;;;;;;6.97;2.97;;;21.50;90.70;;;;;;5040265;28;20478;-72
2022/07/10 08:36:05;;;;;;;6.87;2.10;;;21.90;91.20;;;;;;5028477;28;20470;-72
2022/07/10 08:38:33;;;;;;;5.70;1.90;;;22.60;89.20;;;;;;5029770;28;20470;-72
2022/07/10 08:41:03;;;;;;;7.90;1.67;;;23.10;88.10;;;;;;5029327;28;20456;-72
2022/07/10 08:43:30;;;;;;;7.00;2.43;;;23.40;85.90;;;;;;5030016;28;20541;-72
2022/07/10 08:45:58;;;;;;;6.13;3.00;;;23.30;85.20;;;;;;5029435;28;20459;-71
2022/07/10 08:48:26;;;;;;;10.10;2.53;;;23.00;85.50;;;;;;5028797;28;20477;-71
2022/07/10 08:50:54;;;;;;;7.40;2.20;;;22.70;85.70;;;;;;5028824;28;20591;-71
2022/07/10 08:53:29;;;;;;;4.50;2.03;;;22.50;86.60;;;;;;5028461;28;20470;-70
2022/07/10 08:55:58;;;;;;;8.90;2.80;;;23.10;86.00;;;;;;5026541;28;20461;-73
2022/07/10 08:58:25;;;;;;;12.63;2.40;;;23.80;85.00;;;;;;5029807;28;21093;-71
2022/07/10 09:00:53;;;;;;;5.17;1.93;;;24.10;82.10;;;;;;5028875;28;20443;-72
2022/07/10 09:03:21;;;;;;;4.40;1.50;;;23.60;81.90;;;;;;5027838;28;20482;-71
2022/07/10 09:05:47;;;;;;;4.77;1.93;;;23.10;82.10;;;;;;5028704;28;21089;-72
2022/07/10 09:08:23;;;;;;;4.87;1.63;;;22.60;82.20;;;;;;5029654;28;20461;-71
2022/07/10 09:10:51;;;;;;;5.47;1.83;;;22.50;83.60;;;;;;5028604;28;20448;-73
2022/07/10 09:13:19;;;;;;;3.70;1.60;;;22.50;84.50;;;;;;5026796;28;20558;-71
2022/07/10 09:15:50;;;;;;;5.37;2.83;;;22.60;84.80;;;;;;5028118;28;20465;-72
2022/07/10 09:18:24;;;;;;;7.53;2.20;;;22.60;84.40;;;;;;5028695;28;20458;-70
2022/07/10 09:20:51;;;;;;;9.57;1.97;;;22.50;84.60;;;;;;5025080;28;20559;-73
2022/07/10 09:23:20;;;;;;;6.60;2.60;;;22.30;85.20;;;;;;5030242;28;20477;-70
2022/07/10 09:25:51;;;;;;;6.27;1.67;;;22.10;84.40;;;;;;5038794;28;20486;-70
2022/07/10 09:28:22;;;;;;;10.97;2.27;;;22.00;84.80;;;;;;5031892;28;20794;-72
2022/07/10 09:30:49;;;;;;;2.70;1.50;;;21.70;86.20;;;;;;5031738;28;20459;-74
2022/07/10 09:33:27;;;;;;;7.87;2.07;;;21.60;86.30;;;;;;5031039;28;20475;-73
2022/07/10 09:36:11;;;;;;;7.17;2.33;;;21.70;86.50;;;;;;5028610;28;20934;-72
2022/07/10 09:38:55;;;;;;;8.00;2.17;;;22.10;86.40;;;;;;5026941;28;20479;-75
2022/07/10 09:41:23;;;;;;;4.60;1.80;;;22.70;84.10;;;;;;5028784;28;20546;-74
2022/07/10 09:43:53;;;;;;;7.60;2.00;;;23.00;84.20;;;;;;5027489;28;20480;-75
2022/07/10 09:46:22;;;;;;;6.00;1.80;;;23.20;83.30;;;;;;5028849;28;20464;-74
2022/07/10 09:48:49;;;;;;;8.97;1.90;;;23.20;82.10;;;;;;5029380;28;20457;-74
2022/07/10 09:51:16;;;;;;;8.33;2.00;;;23.50;83.00;;;;;;5027999;28;20450;-76
2022/07/10 09:53:44;;;;;;;4.20;2.37;;;23.80;80.50;;;;;;5027988;28;21165;-72
2022/07/10 09:56:13;;;;;;;4.70;1.87;;;23.90;80.50;;;;;;5029152;28;20461;-74
2022/07/10 09:58:41;;;;;;;5.60;2.00;;;24.20;79.40;;;;;;5027969;28;20497;-73
2022/07/10 10:01:10;;;;;;;3.80;2.07;;;24.50;78.30;;;;;;5027778;28;20472;-73
2022/07/10 10:03:39;;;;;;;8.30;2.90;;;24.80;79.20;;;;;;5028235;28;20478;-75
2022/07/10 10:06:12;;;;;;;4.70;2.03;;;24.90;77.20;;;;;;5029682;28;20478;-74
2022/07/10 10:08:50;;;;;;;9.10;2.17;;;24.20;78.10;;;;;;5028817;28;20818;-73
2022/07/10 10:11:21;;;;;;;20.47;2.57;;;23.40;80.10;;;;;;5028374;28;20446;-76
2022/07/10 10:13:50;;;;;;;7.27;1.73;;;22.70;81.30;;;;;;5027309;28;20476;-75
2022/07/10 10:16:20;;;;;;;5.93;2.07;;;22.30;83.30;;;;;;5027473;28;20548;-73
2022/07/10 10:21:35;;;;;;;6.33;2.07;;;21.60;86.30;;;;;;5025888;28;20458;-74
2022/07/10 10:24:02;;;;;;;5.00;2.10;;;21.70;88.70;;;;;;5028670;28;20484;-74
2022/07/10 10:26:30;;;;;;;2.50;1.50;;;21.70;87.10;;;;;;5027112;28;20454;-78
2022/07/10 10:28:59;;;;;;;7.57;2.10;;;21.70;88.30;;;;;;5026622;28;20454;-74
2022/07/10 10:31:28;;;;;;;5.83;1.80;;;21.90;87.60;;;;;;5025329;28;20445;-75
2022/07/10 10:33:56;;;;;;;6.53;2.17;;;22.00;87.70;;;;;;5025296;28;20511;-74
2022/07/10 10:36:45;;;;;;;7.47;2.33;;;22.20;87.30;;;;;;5026779;28;20473;-73
2022/07/10 10:39:13;;;;;;;3.93;2.00;;;22.00;87.90;;;;;;5023546;28;20504;-76
2022/07/10 10:41:42;;;;;;;8.40;2.47;;;21.90;88.40;;;;;;5030122;28;20466;-77
2022/07/10 10:47:11;;;;;;;7.53;2.17;;;22.00;87.90;;;;;;5033804;28;20791;-76
2022/07/10 10:50:02;;;;;;;7.73;2.03;;;22.40;86.20;;;;;;5040914;28;20529;-76
2022/07/10 10:52:29;;;;;;;9.27;2.50;;;22.80;86.00;;;;;;5025078;28;20473;-77
2022/07/10 10:55:10;;;;;;;6.00;2.07;;;22.90;86.20;;;;;;5033740;28;21059;-75
2022/07/10 10:57:50;;;;;;;10.10;3.50;;;22.80;85.60;;;;;;5032541;28;20466;-74
2022/07/10 11:00:40;;;;;;;16.80;3.40;;;22.80;85.50;;;;;;5030497;28;20484;-75
2022/07/10 11:03:20;;;;;;;6.90;2.23;;;22.60;85.90;;;;;;5032327;28;21077;-75
2022/07/10 11:05:48;;;;;;;6.60;2.97;;;22.40;87.10;;;;;;5033536;28;20540;-74
2022/07/10 11:08:35;;;;;;;5.63;1.80;;;22.40;88.40;;;;;;5032644;28;20493;-76
2022/07/10 11:11:02;;;;;;;4.33;2.10;;;22.20;89.50;;;;;;5052773;28;21131;-77
2022/07/10 11:13:30;;;;;;;7.10;2.20;;;22.30;89.40;;;;;;5043066;28;20489;-75
2022/07/10 11:15:58;;;;;;;6.43;2.13;;;22.50;89.80;;;;;;5034376;28;20467;-75
2022/07/10 11:18:28;;;;;;;6.73;3.00;;;22.60;89.40;;;;;;5032430;28;21061;-75
2022/07/10 11:20:55;;;;;;;6.47;2.27;;;22.60;89.10;;;;;;5031538;28;20490;-74
2022/07/10 11:23:44;;;;;;;5.30;2.07;;;22.70;88.80;;;;;;5031633;28;20475;-76
2022/07/10 11:26:12;;;;;;;6.57;1.90;;;23.00;89.10;;;;;;5029919;28;21289;-74
2022/07/10 11:28:50;;;;;;;6.37;2.10;;;23.00;88.10;;;;;;5035707;28;20890;-73
2022/07/10 11:31:17;;;;;;;3.17;1.47;;;23.00;88.60;;;;;;5044981;28;20528;-75
2022/07/10 11:33:48;;;;;;;5.83;2.10;;;23.00;88.70;;;;;;5038545;28;20589;-74
2022/07/10 11:36:16;;;;;;;6.67;2.33;;;22.80;89.10;;;;;;5033272;28;21253;-75
2022/07/10 11:38:47;;;;;;;10.60;2.40;;;22.40;90.10;;;;;;5036487;28;21781;-75
2022/07/10 11:41:18;;;;;;;10.30;2.70;;;21.90;90.20;;;;;;5034556;28;20494;-75
2022/07/10 11:43:52;;;;;;;10.47;2.47;;;21.40;90.20;;;;;;5029237;28;20478;-73
2022/07/10 11:46:21;;;;;;;5.70;2.23;;;21.10;90.80;;;;;;5032540;28;20552;-76
2022/07/10 11:48:52;;;;;;;7.80;2.17;;;20.90;91.30;;;;;;5032756;28;20456;-75
2022/07/10 11:51:25;;;;;;;6.03;2.20;;;20.80;92.90;;;;;;5031697;28;20453;-74
2022/07/10 11:53:57;;;;;;;7.50;2.50;;;20.80;94.50;;;;;;5033878;28;20465;-75
2022/07/10 11:56:24;;;;;;;7.20;2.23;;;21.20;94.50;;;;;;5047078;28;20557;-76
2022/07/10 11:58:59;;;;;;;6.83;3.03;;;21.70;93.90;;;;;;5049484;28;20484;-73
2022/07/10 12:01:28;;;;;;;7.90;2.70;;;22.10;93.20;;;;;;5045076;28;20928;-73
2022/07/10 12:03:58;;;;;;;6.80;2.53;;;22.20;92.90;;;;;;5048455;28;20556;-73
2022/07/10 12:06:26;;;;;;;8.97;2.23;;;22.20;92.30;;;;;;5043053;28;20529;-73
2022/07/10 12:08:53;;;;;;;7.67;2.83;;;21.80;92.80;;;;;;5050712;28;20450;-75
2022/07/10 12:11:21;;;;;;;7.27;1.90;;;21.40;93.50;;;;;;5051010;28;20380;-75
2022/07/10 12:13:51;;;;;;;14.70;3.10;;;21.00;93.80;;;;;;5040905;28;20562;-76
2022/07/10 12:16:19;;;;;;;9.00;2.10;;;20.60;94.50;;;;;;5029274;28;20450;-75
2022/07/10 12:18:47;;;;;;;8.07;3.00;;;20.20;95.40;;;;;;5031161;28;20783;-74
2022/07/10 12:21:16;;;;;;;9.30;2.37;;;20.00;96.20;;;;;;5030776;28;20485;-75
2022/07/10 12:23:46;;;;;;;4.57;2.00;;;19.90;96.70;;;;;;5029624;28;20497;-75
2022/07/10 12:26:14;;;;;;;6.83;2.20;;;19.90;97.20;;;;;;5029760;28;21226;-75
2022/07/10 12:29:05;;;;;;;6.13;1.90;;;20.00;97.50;;;;;;5029653;28;20478;-73
2022/07/10 12:31:34;;;;;;;3.50;2.03;;;20.40;96.60;;;;;;5027656;28;20841;-73
2022/07/10 12:34:02;;;;;;;8.10;2.00;;;20.60;95.80;;;;;;5024326;28;20480;-73
2022/07/10 12:36:45;;;;;;;5.10;1.57;;;20.70;95.60;;;;;;5036594;28;20512;-75
2022/07/10 12:39:13;;;;;;;7.37;2.07;;;20.70;94.60;;;;;;5045949;28;20478;-75
2022/07/10 12:42:02;;;;;;;3.47;1.70;;;20.80;94.30;;;;;;5044328;28;20499;-75
2022/07/10 12:44:40;;;;;;;3.20;1.40;;;20.80;94.00;;;;;;5036439;28;20477;-76
2022/07/10 12:47:12;;;;;;;4.63;1.90;;;20.70;93.90;;;;;;5033992;28;20517;-77
2022/07/10 12:49:50;;;;;;;3.40;1.73;;;20.60;94.10;;;;;;5036511;28;20557;-75
2022/07/10 12:52:26;;;;;;;5.43;1.70;;;20.50;94.30;;;;;;5039949;28;20525;-75
2022/07/10 12:55:10;;;;;;;4.70;1.27;;;20.30;95.00;;;;;;5041735;28;20485;-75
2022/07/10 12:57:51;;;;;;;5.80;1.53;;;20.10;95.90;;;;;;5043760;28;20465;-75
2022/07/10 13:00:21;;;;;;;3.37;1.90;;;20.00;97.00;;;;;;5039197;28;20896;-76
2022/07/10 13:02:50;;;;;;;6.93;1.70;;;19.90;97.80;;;;;;5030504;28;20478;-75
2022/07/10 13:05:28;;;;;;;6.30;1.77;;;19.70;99.90;;;;;;5030363;28;20548;-75
2022/07/10 13:08:11;;;;;;;2.17;1.30;;;19.70;99.90;;;;;;5029641;28;20449;-76
2022/07/10 13:10:39;;;;;;;4.70;1.60;;;19.80;99.90;;;;;;5028753;28;20542;-75
2022/07/10 13:13:07;;;;;;;3.47;1.40;;;20.00;99.90;;;;;;5030427;28;20486;-76